Beauvechain Air Base


Codes: EBBE/
Name: Beauvechain Air Base
City: Beauvechain
Country: Belgium
Elevation: 370 ft.
Wikipedia:

Photos at Beauvechain Air Base


   Photos courtesy of SpottingLog. You can add your own sightings and photos by signing up for a free trial today.



RN-01, 11-Apr-2019
© Jesse De Jonghe

78-17, 11-Apr-2019
© Jesse De Jonghe

RN-07, 11-Apr-2019
© Jesse De Jonghe

AT-01, 11-Apr-2019
© Jesse De Jonghe

G-12, 11-Apr-2019
© Jesse De Jonghe

3365, 11-Apr-2019
© Jesse De Jonghe

H-35, 12-Apr-2017
© Jesse De Jonghe

OO-DTE, 12-Apr-2017
© Jesse De Jonghe

RN-08, 12-Apr-2017
© Jesse De Jonghe

H-26, 12-Apr-2017
© Jesse De Jonghe

H-31, 12-Apr-2017
© Jesse De Jonghe

ST14, 12-Apr-2017
© Jesse De Jonghe


Weather at Beauvechain Air Base


Time (UTC)DescriptionTempratureWindCloud coverageVisibilityPressureHumidity
17-Jun-2024 06:00Light Rain14°C9 mph, SW83%10000m1010hPa93%
17-Jun-2024 09:00Light Rain15°C11 mph, SW90%10000m1011hPa84%
17-Jun-2024 12:00Light Rain18°C11 mph, SW99%10000m1013hPa76%
17-Jun-2024 15:00Light Rain19°C9 mph, SW99%10000m1013hPa70%
17-Jun-2024 18:00Light Rain19°C4 mph, SW86%10000m1013hPa78%
17-Jun-2024 21:00Overcast Clouds15°C2 mph, SW99%10000m1014hPa87%
18-Jun-2024 00:00Overcast Clouds13°C4 mph, S97%10000m1015hPa90%
18-Jun-2024 03:00Overcast Clouds13°C4 mph, S100%10000m1014hPa92%
18-Jun-2024 06:00Overcast Clouds16°C2 mph, S100%10000m1015hPa88%
18-Jun-2024 09:00Overcast Clouds19°C4 mph, NE100%10000m1014hPa80%
18-Jun-2024 12:00Light Rain18°C2 mph, E100%6487m1014hPa86%
18-Jun-2024 15:00Moderate Rain16°C2 mph, N100%10000m1013hPa96%
18-Jun-2024 18:00Light Rain16°C4 mph, N100%10000m1014hPa96%
18-Jun-2024 21:00Light Rain14°C11 mph, N100%10000m1015hPa97%
19-Jun-2024 00:00Light Rain13°C7 mph, N100%10000m1016hPa99%
19-Jun-2024 03:00Overcast Clouds12°C7 mph, N100%10000m1017hPa98%
19-Jun-2024 06:00Overcast Clouds14°C9 mph, NE99%10000m1018hPa97%
19-Jun-2024 09:00Light Rain16°C11 mph, NE100%10000m1020hPa83%
19-Jun-2024 12:00Overcast Clouds19°C9 mph, NE85%10000m1020hPa62%
19-Jun-2024 15:00Clear Sky20°C9 mph, NE9%10000m1021hPa58%
19-Jun-2024 18:00Few Clouds19°C7 mph, NE11%10000m1021hPa73%
19-Jun-2024 21:00Clear Sky13°C9 mph, NE0%10000m1022hPa89%
20-Jun-2024 00:00Clear Sky11°C9 mph, NE4%10000m1022hPa87%
20-Jun-2024 03:00Scattered Clouds10°C7 mph, NE42%10000m1021hPa94%
20-Jun-2024 06:00Broken Clouds13°C11 mph, NE66%10000m1020hPa84%
20-Jun-2024 09:00Broken Clouds17°C11 mph, NE51%10000m1018hPa81%
20-Jun-2024 12:00Broken Clouds19°C13 mph, E75%10000m1017hPa78%
20-Jun-2024 15:00Scattered Clouds22°C13 mph, E45%10000m1014hPa74%
20-Jun-2024 18:00Light Rain20°C9 mph, SE72%5052m1012hPa92%
20-Jun-2024 21:00Moderate Rain19°C11 mph, SE100%10000m1011hPa96%
21-Jun-2024 00:00Light Rain17°C13 mph, S100%10000m1011hPa93%
21-Jun-2024 03:00Light Rain17°C11 mph, SW100%10000m1010hPa95%
21-Jun-2024 06:00Overcast Clouds18°C9 mph, SW100%10000m1009hPa93%
21-Jun-2024 09:00Light Rain17°C13 mph, SW100%10000m1010hPa94%
21-Jun-2024 12:00Light Rain17°C13 mph, SW100%10000m1011hPa86%
21-Jun-2024 15:00Light Rain18°C13 mph, W100%10000m1011hPa79%
21-Jun-2024 18:00Light Rain17°C7 mph, W100%10000m1012hPa88%
21-Jun-2024 21:00Light Rain15°C7 mph, SW99%10000m1013hPa92%
22-Jun-2024 00:00Light Rain13°C7 mph, SW72%10000m1013hPa97%
22-Jun-2024 03:00Scattered Clouds13°C7 mph, SW37%10000m1013hPa98%